Time;durP1;ratioP1;P1;durP2;ratioP2;P2;SDS_P1;SDS_P2;PMS_P1;PMS_P2;Temp;Humidity;BMP_temperature;BMP_pressure;BME280_temperature;BME280_humidity;BME280_pressure;Samples;Min_cycle;Max_cycle;Signal;HPM_P1;HPM_P2
2023/10/19 04:00:15;;;;;;;;;;;;;;;;;;5011820;28;20024;-76
2023/10/19 04:02:42;;;;;;;;;;;;;;;;;;5015643;28;19969;-75
2023/10/19 04:05:14;;;;;;;;;;;;;;;;;;5015627;28;19926;-76
2023/10/19 04:07:41;;;;;;;;;;;;;;;;;;5015455;28;19929;-75
2023/10/19 04:10:24;;;;;;;;;;;;;;;;;;5015002;28;20386;-76
2023/10/19 04:12:51;;;;;;;;;;;;;;;;;;5015609;28;20025;-76
2023/10/19 04:15:18;;;;;;;;;;;;;;;;;;5015738;28;19925;-75
2023/10/19 04:17:45;;;;;;;;;;;;;;;;;;5015144;28;20022;-75
2023/10/19 04:20:28;;;;;;;;;;;;;;;;;;5015170;28;19948;-76
2023/10/19 04:22:56;;;;;;;;;;;;;;;;;;5015635;28;19971;-76
2023/10/19 04:25:25;;;;;;;;;;;;;;;;;;5016292;28;19925;-76
2023/10/19 04:27:52;;;;;;;;;;;;;;;;;;5016066;28;20025;-76
2023/10/19 04:30:22;;;;;;;;;;;;;;;;;;5015465;28;19980;-76
2023/10/19 04:32:49;;;;;;;;;;;;;;;;;;5014838;28;20378;-75
2023/10/19 04:35:21;;;;;;;;;;;;;;;;;;5015023;28;19996;-76
2023/10/19 04:37:48;;;;;;;;;;;;;;;;;;5014971;28;19930;-75
2023/10/19 04:40:15;;;;;;;;;;;;;;;;;;5014702;28;19925;-74
2023/10/19 04:42:42;;;;;;;;;;;;;;;;;;5014832;28;19925;-74
2023/10/19 04:45:11;;;;;;;;;;;;;;;;;;5014397;28;19933;-75
2023/10/19 04:47:38;;;;;;;;;;;;;;;;;;5014569;28;19925;-75
2023/10/19 04:50:05;;;;;;;;;;;;;;;;;;5014325;28;20326;-75
2023/10/19 04:52:32;;;;;;;;;;;;;;;;;;5014654;28;19933;-76
2023/10/19 04:54:59;;;;;;;;;;;;;;;;;;5014572;28;19949;-76
2023/10/19 04:57:26;;;;;;;;;;;;;;;;;;5014617;28;19930;-75
2023/10/19 04:59:53;;;;;;;;;;;;;;;;;;5014782;28;19972;-76
2023/10/19 05:02:20;;;;;;;;;;;;;;;;;;5014558;28;19929;-75
2023/10/19 05:04:47;;;;;;;;;;;;;;;;;;5014866;28;19925;-75
2023/10/19 05:07:16;;;;;;;;;;;;;;;;;;5014349;28;20386;-75
2023/10/19 05:09:43;;;;;;;;;;;;;;;;;;5014222;28;19933;-75
2023/10/19 05:12:11;;;;;;;;;;;;;;;;;;5014223;28;19926;-75
2023/10/19 05:14:38;;;;;;;;;;;;;;;;;;5014041;28;20371;-75
2023/10/19 05:17:05;;;;;;;;;;;;;;;;;;5014318;28;19934;-75
2023/10/19 10:51:25;;;;;;;;;;;;;;;;;;5068111;22;20402;-76
2023/10/19 10:53:52;;;;;;;;;;;;;;;;;;5036771;28;19925;-76
2023/10/19 10:56:19;;;;;;;;;;;;;;;;;;5036295;28;19971;-77
2023/10/19 10:58:46;;;;;;;;;;;;;;;;;;5036580;28;19932;-77
2023/10/19 11:01:13;;;;;;;;;;;;;;;;;;5036589;28;19932;-77
2023/10/19 11:03:40;;;;;;;;;;;;;;;;;;5036593;28;19925;-77
2023/10/19 11:06:08;;;;;;;;;;;;;;;;;;5075794;23;19925;-77
2023/10/19 11:08:35;;;;;;;;;;;;;;;;;;5017740;28;19956;-77
2023/10/19 11:11:04;;;;;;;;;;;;;;;;;;5017618;28;19926;-76
2023/10/19 11:13:33;;;;;;;;;;;;;;;;;;5017725;28;19925;-77
2023/10/19 11:16:01;;;;;;;;;;;;;;;;;;5017536;28;20025;-77
2023/10/19 11:18:28;;;;;;;;;;;;;;;;;;5020406;28;19977;-77
2023/10/19 11:20:55;;;;;;;;;;;;;;;;;;5018954;28;19929;-77
2023/10/19 11:23:21;;;;;;;;;;;;;;;;;;5017103;28;19937;-77
2023/10/19 11:25:48;;;;;;;;;;;;;;;;;;5017425;28;19948;-78
2023/10/19 11:28:15;;;;;;;;;;;;;;;;;;5016522;28;19932;-78
2023/10/19 11:30:42;;;;;;;;;;;;;;;;;;5016558;28;19926;-77
2023/10/19 11:33:10;;;;;;;;;;;;;;;;;;5016285;28;19925;-77
2023/10/19 11:35:37;;;;;;;;;;;;;;;;;;5016423;28;19925;-77
2023/10/19 11:38:04;;;;;;;;;;;;;;;;;;5016323;28;19984;-77
2023/10/19 11:40:31;;;;;;;;;;;;;;;;;;5016284;28;19926;-77
2023/10/19 11:43:00;;;;;;;;;;;;;;;;;;5016351;28;20338;-77
2023/10/19 11:45:28;;;;;;;;;;;;;;;;;;5015960;28;19975;-77
2023/10/19 11:47:56;;;;;;;;;;;;;;;;;;5016084;28;19984;-77
2023/10/19 11:50:24;;;;;;;;;;;;;;;;;;5016133;28;19932;-77
2023/10/19 11:52:51;;;;;;;;;;;;;;;;;;5016930;28;19956;-77
2023/10/19 11:55:18;;;;;;;;;;;;;;;;;;5016631;28;19926;-77
2023/10/19 11:57:46;;;;;;;;;;;;;;;;;;5019406;28;19929;-76
2023/10/19 12:00:19;;;;;;;;;;;;;;;;;;5017920;28;19926;-77
2023/10/19 12:02:46;;;;;;;;;;;;;;;;;;5016995;28;19925;-76
2023/10/19 12:05:13;;;;;;;;;;;;;;;;;;5015210;28;20379;-77
2023/10/19 12:07:40;;;;;;;;;;;;;;;;;;5015730;28;19933;-76
2023/10/19 12:10:07;;;;;;;;;;;;;;;;;;5015587;28;19926;-77
2023/10/19 12:12:34;;;;;;;;;;;;;;;;;;5015436;28;19975;-77
2023/10/19 12:15:02;;;;;;;;;;;;;;;;;;5015395;28;20302;-76
2023/10/19 12:17:30;;;;;;;;;;;;;;;;;;5015362;28;19930;-76
2023/10/19 12:19:57;;;;;;;;;;;;;;;;;;5015338;28;19929;-76
2023/10/19 12:22:28;;;;;;;;;;;12.30;99.90;;;;;;5014954;28;20326;-76
2023/10/19 12:24:54;;;;;;;;;;;17.30;99.90;;;;;;5015906;28;19964;-77
2023/10/19 12:27:21;;;;;;;;;;;17.30;99.90;;;;;;5015415;28;19925;-77
2023/10/19 12:29:47;;;;;;;;;;;17.20;99.90;;;;;;5015514;28;19926;-77
2023/10/19 12:32:14;;;;;;;;;;;17.30;99.90;;;;;;5015163;28;19936;-77
2023/10/19 12:34:41;;;;;;;;;;;17.30;99.90;;;;;;5015236;28;19925;-76
2023/10/19 12:37:09;;;;;;;;;;;17.30;99.90;;;;;;5015464;28;19932;-76
2023/10/19 12:39:43;;;;;;;;;;;17.30;99.90;;;;;;5015086;28;19929;-76
2023/10/19 12:42:09;;;;;;;;;;;17.30;99.90;;;;;;5014763;28;20366;-73
2023/10/19 12:44:40;;;;;;;;;;;17.40;99.90;;;;;;5014793;28;19929;-73
2023/10/19 12:47:09;;;;;;;;;;;17.40;99.90;;;;;;5014844;28;19932;-73
2023/10/19 12:49:36;;;;;;;;;;;17.40;99.90;;;;;;5015454;28;19930;-76
2023/10/19 12:52:04;;;;;;;;;;;17.50;99.90;;;;;;5014754;28;19926;-76
2023/10/19 12:54:30;;;;;;;;;;;17.50;99.90;;;;;;5015179;28;19925;-75
2023/10/19 12:56:58;;;;;;;;;;;17.60;99.90;;;;;;5014939;28;19930;-75
2023/10/19 12:59:25;;;;;;;;;;;17.50;99.90;;;;;;5014399;28;19933;-75
2023/10/19 13:01:54;;;;;;;;;;;17.50;99.90;;;;;;5014708;28;20264;-75
2023/10/19 13:04:23;;;;;;;;;;;17.50;99.90;;;;;;5014255;28;20417;-76
2023/10/19 13:06:50;;;;;;;;;;;17.50;99.90;;;;;;5014615;28;19925;-75
2023/10/19 13:09:21;;;;;;;;;;;17.50;99.90;;;;;;5014694;28;20298;-75
2023/10/19 13:11:51;;;;;;;;;;;17.60;99.90;;;;;;5014955;28;19925;-75
2023/10/19 13:14:19;;;;;;;;;;;17.50;99.90;;;;;;5014538;28;20028;-75
2023/10/19 13:16:47;;;;;;;;;;;17.60;99.90;;;;;;5014791;28;19930;-75
2023/10/19 13:19:15;;;;;;;;;;;17.60;99.90;;;;;;5014661;28;20012;-75
2023/10/19 13:21:43;;;;;;;;;;;17.70;99.90;;;;;;5014418;28;19929;-74
2023/10/19 13:24:10;;;;;;;;;;;17.70;99.90;;;;;;5014813;28;19972;-75
2023/10/19 13:26:38;;;;;;;;;;;17.70;99.90;;;;;;5014812;28;20322;-74
2023/10/19 13:29:04;;;;;;;;;;;17.70;99.90;;;;;;5014872;28;20375;-75
2023/10/19 13:31:32;;;;;;;;;;;17.70;99.90;;;;;;5014561;28;19932;-75
2023/10/19 13:33:59;;;;;;;;;;;17.70;99.90;;;;;;5013870;28;20020;-76
2023/10/19 13:36:26;;;;;;;;;;;17.70;99.90;;;;;;5015030;28;19929;-76
2023/10/19 13:38:52;;;;;;;;;;;17.70;99.90;;;;;;5014882;28;19951;-76
2023/10/19 13:41:20;;;;;;;;;;;17.60;99.90;;;;;;5014804;28;19932;-76
2023/10/19 13:43:47;;;;;;;;;;;17.60;99.90;;;;;;5014962;28;20024;-76
2023/10/19 13:46:13;;;;;;;;;;;17.50;99.90;;;;;;5014723;28;20015;-77
2023/10/19 13:48:41;;;;;;;;;;;17.40;99.90;;;;;;5014531;28;19926;-76
2023/10/19 13:51:13;;;;;;;;;;;17.30;99.90;;;;;;5015374;28;19926;-76
2023/10/19 13:53:40;;;;;;;;;;;17.30;99.90;;;;;;5015163;28;19925;-76
2023/10/19 13:56:08;;;;;;;;;;;17.20;99.90;;;;;;5014896;28;19933;-76
2023/10/19 13:58:35;;;;;;;;;;;17.10;99.90;;;;;;5015182;28;19988;-76
2023/10/19 14:01:03;;;;;;;;;;;17.10;99.90;;;;;;5015014;28;19934;-75
2023/10/19 14:03:30;;;;;;;;;;;17.10;99.90;;;;;;5015113;28;20367;-75
2023/10/19 14:05:58;;;;;;;;;;;17.00;99.90;;;;;;5015090;28;19933;-77
2023/10/19 14:08:25;;;;;;;;;;;17.00;99.90;;;;;;5015043;28;19925;-76
2023/10/19 14:10:51;;;;;;;;;;;16.90;99.90;;;;;;5015093;28;19926;-76
2023/10/19 14:13:18;;;;;;;;;;;16.90;99.90;;;;;;5014739;28;19932;-77
2023/10/19 14:15:45;;;;;;;;;;;16.90;99.90;;;;;;5015147;28;19926;-77
2023/10/19 14:18:11;;;;;;;;;;;16.80;99.90;;;;;;5015280;28;19948;-77
2023/10/19 14:20:38;;;;;;;;;;;16.80;99.90;;;;;;5015038;28;19925;-76
2023/10/19 14:23:06;;;;;;;;;;;16.70;99.90;;;;;;5015038;28;20297;-77
2023/10/19 14:25:37;;;;;;;;;;;16.70;99.90;;;;;;5014938;28;19925;-77
2023/10/19 14:28:06;;;;;;;;;;;16.60;99.90;;;;;;5014685;28;20383;-76
2023/10/19 14:30:33;;;;;;;;;;;16.50;99.90;;;;;;5015135;28;20344;-77
2023/10/19 14:33:00;;;;;;;;;;;16.40;99.90;;;;;;5015241;28;19926;-77
2023/10/19 14:35:26;;;;;;;;;;;16.30;99.90;;;;;;5015538;28;19932;-76
2023/10/19 14:37:55;;;;;;;;;;;16.30;99.90;;;;;;5015339;28;19932;-77
2023/10/19 14:40:24;;;;;;;;;;;16.20;99.90;;;;;;5019052;28;19961;-77
2023/10/19 14:42:53;;;;;;;;;;;16.10;99.90;;;;;;5015077;28;20379;-77
2023/10/19 14:45:20;;;;;;;;;;;16.00;99.90;;;;;;5016806;28;19926;-77
2023/10/19 14:47:48;;;;;;;;;;;15.90;99.90;;;;;;5018570;28;19929;-77
2023/10/19 14:50:15;;;;;;;;;;;15.90;99.90;;;;;;5018492;28;19926;-76
2023/10/19 14:52:42;;;;;;;;;;;15.90;99.90;;;;;;5018461;28;19925;-77
2023/10/19 14:55:09;;;;;;;;;;;15.90;99.90;;;;;;5017884;28;19926;-77
2023/10/19 14:57:38;;;;;;;;;;;16.00;99.90;;;;;;5017857;28;19991;-77
2023/10/19 15:00:14;;;;;;;;;;;16.00;99.90;;;;;;5018347;28;20370;-77
2023/10/19 15:02:41;;;;;;;;;;;16.00;99.90;;;;;;5020451;28;19926;-77
2023/10/19 15:05:08;;;;;;;;;;;15.90;99.90;;;;;;5021072;28;20279;-77
2023/10/19 15:07:35;;;;;;;;;;;15.90;99.90;;;;;;5019187;28;19932;-76
2023/10/19 15:10:03;;;;;;;;;;;15.80;99.90;;;;;;5019130;28;19925;-76
2023/10/19 15:12:29;;;;;;;;;;;15.70;99.90;;;;;;5019951;28;19932;-76
2023/10/19 15:14:59;;;;;;;;;;;15.70;99.90;;;;;;5019615;28;19972;-76
2023/10/19 15:17:26;;;;;;;;;;;15.70;99.90;;;;;;5018840;28;19925;-76
2023/10/19 15:19:53;;;;;;;;;;;15.60;99.90;;;;;;5018501;28;19932;-75
2023/10/19 15:22:19;;;;;;;;;;;15.60;99.90;;;;;;5017567;28;20289;-75
2023/10/19 15:24:46;;;;;;;;;;;15.50;99.90;;;;;;5018170;28;19925;-75
2023/10/19 15:27:12;;;;;;;;;;;15.40;99.90;;;;;;5017951;28;19932;-75
2023/10/19 15:29:39;;;;;;;;;;;;;;;;;;5017267;28;20382;-76
2023/10/19 15:32:07;;;;;;;;;;;;;;;;;;5017347;28;19926;-76
2023/10/19 15:34:35;;;;;;;;;;;;;;;;;;5016880;28;19972;-76
2023/10/19 15:37:02;;;;;;;;;;;;;;;;;;5016731;28;20405;-76
2023/10/19 15:39:29;;;;;;;;;;;;;;;;;;5017133;28;19925;-76
2023/10/19 15:41:56;;;;;;;;;;;;;;;;;;5017437;28;19948;-77
2023/10/19 15:44:23;;;;;;;;;;;;;;;;;;5018066;28;20275;-76
2023/10/19 15:46:52;;;;;;;;;;;;;;;;;;5017937;28;19926;-76
2023/10/19 15:49:19;;;;;;;;;;;;;;;;;;5018233;28;19933;-75
2023/10/19 15:51:46;;;;;;;;;;;;;;;;;;5016906;28;19932;-75
2023/10/19 15:54:13;;;;;;;;;;;;;;;;;;5017465;28;19932;-75
2023/10/19 15:56:40;;;;;;;;;;;;;;;;;;5016340;28;19932;-76
2023/10/19 15:59:07;;;;;;;;;;;;;;;;;;5016498;28;20401;-75
2023/10/19 16:01:34;;;;;;;;;;;;;;;;;;5016437;28;19926;-75
2023/10/19 16:04:01;;;;;;;;;;;;;;;;;;5017270;28;19948;-77
2023/10/19 16:06:28;;;;;;;;;;;;;;;;;;5017392;28;19945;-77
2023/10/19 16:08:56;;;;;;;;;;;;;;;;;;5017397;28;19933;-75
2023/10/19 16:11:23;;;;;;;;;;;;;;;;;;5017545;28;20466;-76
2023/10/19 16:13:50;;;;;;;;;;;;;;;;;;5017126;28;19926;-75
2023/10/19 16:16:17;;;;;;;;;;;;;;;;;;5016625;28;19926;-75
2023/10/19 16:18:44;;;;;;;;;;;;;;;;;;5020899;28;19925;-76
2023/10/19 16:21:11;;;;;;;;;;;;;;;;;;5026070;28;19925;-76
2023/10/19 16:23:38;;;;;;;;;;;;;;;;;;5027911;28;19936;-77
2023/10/19 16:26:05;;;;;;;;;;;;;;;;;;5029091;28;19948;-78
2023/10/19 16:28:32;;;;;;;;;;;;;;;;;;5030414;28;19989;-78
2023/10/19 16:30:59;;;;;;;;;;;;;;;;;;5029521;28;19925;-76
2023/10/19 16:33:26;;;;;;;;;;;;;;;;;;5028418;28;19925;-78
2023/10/19 16:35:53;;;;;;;;;;;;;;;;;;5021098;28;19926;-78
2023/10/19 16:38:20;;;;;;;;;;;;;;;;;;5021143;28;19932;-80
2023/10/19 16:40:47;;;;;;;;;;;;;;;;;;5020723;28;19925;-78
2023/10/19 16:43:14;;;;;;;;;;;;;;;;;;5027853;28;19932;-76
2023/10/19 16:45:42;;;;;;;;;;;;;;;;;;5031751;28;19994;-76
2023/10/19 16:48:09;;;;;;;;;;;;;;;;;;5027132;28;19929;-72
2023/10/19 16:50:36;;;;;;;;;;;;;;;;;;5018153;28;20020;-76
2023/10/19 16:53:03;;;;;;;;;;;;;;;;;;5017247;28;19925;-77
2023/10/19 16:55:30;;;;;;;;;;;;;;;;;;5017539;28;19932;-76
2023/10/19 16:58:01;;;;;;;;;;;;;;;;;;5016658;28;19936;-76
2023/10/19 17:00:30;;;;;;;;;;;;;;;;;;5016685;28;19989;-76
2023/10/19 17:02:58;;;;;;;;;;;;;;;;;;5020014;28;19949;-77
2023/10/19 17:05:25;;;;;;;;;;;;;;;;;;5020085;28;19926;-76
2023/10/19 17:07:52;;;;;;;;;;;;;;;;;;5036369;28;19916;-78
2023/10/19 17:10:19;;;;;;;;;;;;;;;;;;5032778;28;20019;-77
2023/10/19 17:12:46;;;;;;;;;;;;;;;;;;5031039;28;19910;-77
2023/10/19 17:15:13;;;;;;;;;;;;;;;;;;5030819;28;19926;-78
2023/10/19 17:17:40;;;;;;;;;;;;;;;;;;5030310;28;20028;-78
2023/10/19 17:20:08;;;;;;;;;;;;;;;;;;5025625;28;19932;-77
2023/10/19 17:22:35;;;;;;;;;;;;;;;;;;5020632;28;19925;-77
2023/10/19 17:25:02;;;;;;;;;;;;;;;;;;5018831;28;19926;-76
2023/10/19 17:27:29;;;;;;;;;;;;;;;;;;5020064;28;20025;-76
2023/10/19 17:29:57;;;;;;;;;;;;;;;;;;5018316;28;19926;-77
2023/10/19 17:32:24;;;;;;;;;;;;;;;;;;5017792;28;20013;-77
2023/10/19 17:34:51;;;;;;;;;;;;;;;;;;5063162;23;20015;-77
2023/10/19 17:37:19;;;;;;;;;;;;;;;;;;5055797;28;19947;-76
2023/10/19 17:39:46;;;;;;;;;;;;;;;;;;5056922;28;20369;-77
2023/10/19 17:42:15;;;;;;;;;;;;;;;;;;5066613;28;19925;-79
2023/10/19 17:44:42;;;;;;;;;;;;;;;;;;5050172;28;19925;-77
2023/10/19 17:47:09;;;;;;;;;;;;;;;;;;5036480;28;19925;-78
2023/10/19 17:49:36;;;;;;;;;;;;;;;;;;5036652;28;19933;-76
2023/10/19 17:52:03;;;;;;;;;;;;;;;;;;5035381;28;20290;-76
2023/10/19 17:54:29;;;;;;;;;;;;;;;;;;5035471;28;19925;-77
2023/10/19 17:56:56;;;;;;;;;;;;;;;;;;5036569;28;19925;-76
2023/10/19 17:59:23;;;;;;;;;;;;;;;;;;5036132;28;20341;-75
2023/10/19 18:01:51;;;;;;;;;;;;;;;;;;5034937;28;19925;-75
2023/10/19 18:04:18;;;;;;;;;;;;;;;;;;5034880;28;19926;-75
2023/10/19 18:06:45;;;;;;;;;;;;;;;;;;5034797;28;19929;-75
2023/10/19 18:09:12;;;;;;;;;;;;;;;;;;5034767;28;19929;-75
2023/10/19 18:11:39;;;;;;;;;;;;;;;;;;5034152;28;19925;-74
2023/10/19 18:14:07;;;;;;;;;;;;;;;;;;5035124;28;19925;-74
2023/10/19 18:16:34;;;;;;;;;;;;;;;;;;5036116;28;19979;-78
2023/10/19 18:19:01;;;;;;;;;;;;;;;;;;5037350;28;19932;-78
2023/10/19 18:21:29;;;;;;;;;;;;;;;;;;5042038;28;19925;-76
2023/10/19 18:23:56;;;;;;;;;;;;;;;;;;5037659;28;19927;-74
2023/10/19 18:26:22;;;;;;;;;;;;;;;;;;5037827;28;19925;-73
2023/10/19 18:28:49;;;;;;;;;;;;;;;;;;5037860;28;19925;-75
2023/10/19 18:31:16;;;;;;;;;;;;;;;;;;5037924;28;19925;-76
2023/10/19 18:33:43;;;;;;;;;;;;;;;;;;5037349;28;19932;-75
2023/10/19 18:36:10;;;;;;;;;;;;;;;;;;5038311;28;19925;-77
2023/10/19 18:38:37;;;;;;;;;;;;;;;;;;5038372;28;19932;-76
2023/10/19 18:41:06;;;;;;;;;;;;;;;;;;5039299;28;19936;-76
2023/10/19 18:43:32;;;;;;;;;;;;;;;;;;5038653;28;19925;-74
2023/10/19 18:45:59;;;;;;;;;;;;;;;;;;5039641;28;20298;-77
2023/10/19 18:48:26;;;;;;;;;;;;;;;;;;5041593;28;19925;-80
2023/10/19 18:50:53;;;;;;;;;;;;;;;;;;5038688;28;19925;-75
2023/10/19 18:53:22;;;;;;;;;;;;;;;;;;5039300;28;19984;-76
2023/10/19 18:55:49;;;;;;;;;;;;;;;;;;5040582;28;19925;-76
2023/10/19 18:58:16;;;;;;;;;;;;;;;;;;5042248;28;19926;-77
2023/10/19 19:00:43;;;;;;;;;;;;;;;;;;5040955;28;20032;-77
2023/10/19 19:03:10;;;;;;;;;;;;;;;;;;5040598;28;19925;-77
2023/10/19 19:05:37;;;;;;;;;;;;;;;;;;5047828;28;19925;-78
2023/10/19 19:08:04;;;;;;;;;;;;;;;;;;5052730;28;19925;-78
2023/10/19 19:10:32;;;;;;;;;;;;;;;;;;5040930;28;19925;-78
2023/10/19 19:12:59;;;;;;;;;;;;;;;;;;5043840;28;19925;-78
2023/10/19 19:15:26;;;;;;;;;;;;;;;;;;5043922;28;19925;-78
2023/10/19 19:17:53;;;;;;;;;;;;;;;;;;5042696;28;19925;-76
2023/10/19 19:20:21;;;;;;;;;;;;;;;;;;5039773;28;19931;-77
2023/10/19 19:22:48;;;;;;;;;;;;;;;;;;5041541;28;19925;-78
2023/10/19 19:25:15;;;;;;;;;;;;;;;;;;5040525;28;20413;-79
2023/10/19 19:27:42;;;;;;;;;;;;;;;;;;5040283;28;19925;-78
2023/10/19 19:30:10;;;;;;;;;;;;;;;;;;5038283;28;20374;-78
2023/10/19 19:32:37;;;;;;;;;;;;;;;;;;5037824;28;20352;-79
2023/10/19 19:35:04;;;;;;;;;;;;;;;;;;5037667;28;19925;-77
2023/10/19 19:37:34;;;;;;;;;;;;;;;;;;5038808;28;19987;-77
2023/10/19 19:40:02;;;;;;;;;;;;;;;;;;5037842;28;19932;-76
2023/10/19 19:42:29;;;;;;;;;;;;;;;;;;5037722;28;19929;-77
2023/10/19 19:44:56;;;;;;;;;;;;;;;;;;5037843;28;19936;-76
2023/10/19 19:47:23;;;;;;;;;;;;;;;;;;5038154;28;19984;-77
2023/10/19 19:49:50;;;;;;;;;;;;;;;;;;5039318;28;19932;-80
2023/10/19 19:52:17;;;;;;;;;;;;;;;;;;5039549;28;19925;-76
2023/10/19 19:54:44;;;;;;;;;;;;;;;;;;5037374;28;19925;-76
2023/10/19 19:57:10;;;;;;;;;;;;;;;;;;5037143;28;19925;-77
2023/10/19 19:59:37;;;;;;;;;;;;;;;;;;5037345;28;19925;-77
2023/10/19 20:02:04;;;;;;;;;;;;;;;;;;5037702;28;19925;-77
2023/10/19 20:04:31;;;;;;;;;;;;;;;;;;5036923;28;19925;-78
2023/10/19 20:06:58;;;;;;;;;;;;;;;;;;5039137;28;19929;-81
2023/10/19 20:09:25;;;;;;;;;;;;;;;;;;5042819;28;19925;-78
2023/10/19 20:11:52;;;;;;;;;;;;;;;;;;5045730;28;19924;-80
2023/10/19 20:14:19;;;;;;;;;;;;;;;;;;5044107;28;19931;-82
2023/10/19 20:16:46;;;;;;;;;;;;;;;;;;5047623;28;20405;-81
2023/10/19 20:19:15;;;;;;;;;;;;;;;;;;5048484;28;19992;-82
2023/10/19 20:21:43;;;;;;;;;;;;;;;;;;5044196;28;19931;-80
2023/10/19 20:24:10;;;;;;;;;;;;;;;;;;5044542;28;19945;-80
2023/10/19 20:26:37;;;;;;;;;;;;;;;;;;5047472;28;19952;-80
2023/10/19 20:29:05;;;;;;;;;;;;;;;;;;5047397;28;19925;-80
2023/10/19 20:31:32;;;;;;;;;;;;;;;;;;5042472;28;20400;-78
2023/10/19 20:33:59;;;;;;;;;;;;;;;;;;5037891;28;19925;-78
2023/10/19 20:36:26;;;;;;;;;;;;;;;;;;5038178;28;19936;-78
2023/10/19 20:38:55;;;;;;;;;;;;;;;;;;5034969;28;19925;-77
2023/10/19 20:41:22;;;;;;;;;;;;;;;;;;5035214;28;20030;-77
2023/10/19 20:43:49;;;;;;;;;;;;;;;;;;5034571;28;19925;-78
2023/10/19 20:46:16;;;;;;;;;;;;;;;;;;5034724;28;19926;-78
2023/10/19 20:48:43;;;;;;;;;;;;;;;;;;5035590;28;19932;-79
2023/10/19 20:51:10;;;;;;;;;;;;;;;;;;5034993;28;19933;-78
2023/10/19 20:53:37;;;;;;;;;;;;;;;;;;5038354;28;19932;-79
2023/10/19 20:56:04;;;;;;;;;;;;;;;;;;5038260;28;19925;-79
2023/10/19 20:58:31;;;;;;;;;;;;;;;;;;5037357;28;19925;-78
2023/10/19 21:00:58;;;;;;;;;;;;;;;;;;5036727;28;19936;-78
2023/10/19 21:03:26;;;;;;;;;;;;;;;;;;5035668;28;19960;-78
2023/10/19 21:05:53;;;;;;;;;;;;;;;;;;5037481;28;19925;-78
2023/10/19 21:08:21;;;;;;;;;;;;;;;;;;5037381;28;19925;-78
2023/10/19 21:10:47;;;;;;;;;;;;;;;;;;5038537;28;19925;-78
